Time;durP1;ratioP1;P1;durP2;ratioP2;P2;SDS_P1;SDS_P2;PMS_P1;PMS_P2;Temp;Humidity;BMP_temperature;BMP_pressure;BME280_temperature;BME280_humidity;BME280_pressure;Samples;Min_cycle;Max_cycle;Signal;HPM_P1;HPM_P2
2023/08/10 00:00:15;;;;;;;;;;;;;;;12.38;100.00;97507.98;110349;1241;68464;-69
2023/08/10 00:03:04;;;;;;;;;;;;;;;12.36;100.00;97506.40;110236;1241;70522;-69
2023/08/10 00:05:34;;;;;;;;;;;;;;;12.35;100.00;97504.22;110370;1241;59683;-68
2023/08/10 00:08:03;;;;;;;;;;;;;;;12.32;100.00;97505.69;110397;1241;59747;-68
2023/08/10 00:10:32;;;;;;;;;;;;;;;12.30;100.00;97500.64;110350;1241;70700;-68
2023/08/10 00:13:03;;;;;;;;;;;;;;;12.28;100.00;97497.42;110305;1243;69212;-68
2023/08/10 00:15:34;;;;;;;;;;;;;;;12.25;100.00;97501.33;110255;1241;69359;-68
2023/08/10 00:18:05;;;;;;;;;;;;;;;12.23;100.00;97499.90;110334;1242;59843;-68
2023/08/10 00:20:35;;;;;;;;;;;;;;;12.25;100.00;97507.46;110432;1241;59666;-69
2023/08/10 00:23:05;;;;;;;;;;;;;;;12.27;100.00;97507.84;110455;1241;70707;-69
2023/08/10 00:25:35;;;;;;;;;;;;;;;12.26;100.00;97513.73;110462;1243;68587;-68
2023/08/10 00:28:07;;;;;;;;;;;;;;;12.19;100.00;97525.52;110429;1240;67546;-69
2023/08/10 00:30:38;;;;;;;;;;;;;;;12.01;100.00;97530.95;110262;1241;59648;-68
2023/08/10 00:33:09;;;;;;;;;;;;;;;11.92;100.00;97534.14;110416;1241;59684;-70
2023/08/10 00:35:56;;;;;;;;;;;;;;;11.89;100.00;97532.95;110279;1242;70634;-68
2023/08/10 00:38:26;;;;;;;;;;;;;;;11.92;100.00;97531.45;110403;1240;69646;-68
2023/08/10 00:40:55;;;;;;;;;;;;;;;12.00;100.00;97524.98;110428;1240;68509;-68
2023/08/10 00:43:26;;;;;;;;;;;;;;;12.08;100.00;97525.73;110275;1242;59695;-68
2023/08/10 00:45:57;;;;;;;;;;;;;;;12.17;100.00;97524.68;110455;1239;59656;-68
2023/08/10 00:48:29;;;;;;;;;;;;;;;12.26;100.00;97520.66;110406;1240;71375;-70
2023/08/10 00:51:00;;;;;;;;;;;;;;;12.35;100.00;97518.75;110238;1242;69127;-68
2023/08/10 00:53:32;;;;;;;;;;;;;;;12.43;100.00;97516.69;110121;1245;69150;-68
2023/08/10 00:56:03;;;;;;;;;;;;;;;12.50;100.00;97514.29;110232;1242;59674;-68
2023/08/10 00:58:34;;;;;;;;;;;;;;;12.57;100.00;97514.74;110302;1242;59766;-68
2023/08/10 01:01:04;;;;;;;;;;;;;;;12.61;100.00;97516.29;110184;1240;70789;-68
2023/08/10 01:03:35;;;;;;;;;;;;;;;12.65;100.00;97515.64;110230;1242;69167;-68
2023/08/10 01:06:26;;;;;;;;;;;;;;;12.70;100.00;97516.84;110246;1242;69168;-68
2023/08/10 01:09:15;;;;;;;;;;;;;;;12.76;100.00;97514.43;110202;1242;59728;-70
2023/08/10 01:12:09;;;;;;;;;;;;;;;12.81;100.00;97512.44;110213;1242;59643;-68
2023/08/10 01:14:49;;;;;;;;;;;;;;;12.86;100.00;97516.05;110225;1242;71014;-69
2023/08/10 01:17:23;;;;;;;;;;;;;;;12.89;100.00;97518.80;110245;1240;68555;-68
2023/08/10 01:19:56;;;;;;;;;;;;;;;12.93;100.00;97518.87;110417;1241;69090;-67
2023/08/10 01:22:54;;;;;;;;;;;;;;;12.96;100.00;97524.02;110437;1241;59691;-69
2023/08/10 01:25:26;;;;;;;;;;;;;;;12.98;100.00;97518.45;110080;1241;60287;-67
2023/08/10 01:27:57;;;;;;;;;;;;;;;13.00;100.00;97518.27;110352;1241;71364;-68
2023/08/10 01:30:28;;;;;;;;;;;;;;;13.01;100.00;97515.55;110342;1241;69279;-68
2023/08/10 01:32:59;;;;;;;;;;;;;;;13.01;100.00;97522.38;110285;1241;69502;-70
2023/08/10 01:35:32;;;;;;;;;;;;;;;13.03;100.00;97521.02;110336;1241;59675;-68
2023/08/10 01:38:05;;;;;;;;;;;;;;;13.05;100.00;97522.06;110241;1241;60118;-68
2023/08/10 01:40:37;;;;;;;;;;;;;;;13.09;100.00;97520.04;110238;1242;71392;-68
2023/08/10 01:43:09;;;;;;;;;;;;;;;13.11;100.00;97517.59;110254;1242;69262;-68
2023/08/10 01:45:46;;;;;;;;;;;;;;;13.11;100.00;97514.54;110314;1242;69885;-68
2023/08/10 01:48:25;;;;;;;;;;;;;;;13.12;100.00;97510.67;110431;1241;59717;-68
2023/08/10 01:50:57;;;;;;;;;;;;;;;13.11;100.00;97513.18;110376;1240;59672;-70
2023/08/10 01:53:30;;;;;;;;;;;;;;;13.09;100.00;97519.61;110315;1239;71446;-70
2023/08/10 01:56:01;;;;;;;;;;;;;;;13.10;100.00;97522.38;110462;1246;69047;-70
2023/08/10 01:58:35;;;;;;;;;;;;;;;13.12;100.00;97522.38;110372;1241;69264;-69
2023/08/10 02:01:06;;;;;;;;;;;;;;;13.13;100.00;97525.29;110410;1241;59687;-69
2023/08/10 02:03:37;;;;;;;;;;;;;;;13.15;100.00;97526.15;110318;1243;59679;-67
2023/08/10 02:06:08;;;;;;;;;;;;;;;13.16;100.00;97526.72;110223;1241;71359;-68
2023/08/10 02:08:38;;;;;;;;;;;;;;;13.17;100.00;97525.10;110308;1242;68531;-70
2023/08/10 02:11:08;;;;;;;;;;;;;;;13.17;100.00;97521.41;110366;1241;69775;-70
2023/08/10 02:13:39;;;;;;;;;;;;;;;13.18;100.00;97522.38;110244;1241;59738;-69
2023/08/10 02:16:12;;;;;;;;;;;;;;;13.18;100.00;97521.56;110253;1241;59705;-69
2023/08/10 02:18:43;;;;;;;;;;;;;;;13.17;100.00;97520.06;110171;1240;71398;-69
2023/08/10 02:21:14;;;;;;;;;;;;;;;13.18;100.00;97520.16;110181;1240;69192;-69
2023/08/10 02:23:45;;;;;;;;;;;;;;;13.18;100.00;97523.95;110262;1241;68413;-69
2023/08/10 02:26:16;;;;;;;;;;;;;;;13.18;100.00;97527.98;110333;1240;59694;-68
2023/08/10 02:28:51;;;;;;;;;;;;;;;13.20;100.00;97530.80;110290;1243;59655;-68
2023/08/10 02:31:23;;;;;;;;;;;;;;;13.20;100.00;97533.42;110288;1242;70642;-69
2023/08/10 02:33:52;;;;;;;;;;;;;;;13.19;100.00;97530.89;110284;1242;69251;-69
2023/08/10 02:36:23;;;;;;;;;;;;;;;13.19;100.00;97529.98;110290;1242;69184;-69
2023/08/10 02:38:56;;;;;;;;;;;;;;;13.19;100.00;97528.10;110279;1240;59724;-68
2023/08/10 02:41:28;;;;;;;;;;;;;;;13.20;100.00;97532.21;110294;1241;59730;-67
2023/08/10 02:44:02;;;;;;;;;;;;;;;13.20;100.00;97526.98;110303;1242;70498;-68
2023/08/10 02:46:32;;;;;;;;;;;;;;;13.17;100.00;97528.80;110445;1242;69485;-69
2023/08/10 02:49:05;;;;;;;;;;;;;;;13.13;100.00;97528.76;110273;1240;69150;-69
2023/08/10 02:51:38;;;;;;;;;;;;;;;13.10;100.00;97529.04;110392;1241;59737;-68
2023/08/10 02:54:10;;;;;;;;;;;;;;;13.06;100.00;97528.42;110295;1241;59710;-69
2023/08/10 02:56:43;;;;;;;;;;;;;;;13.05;100.00;97525.09;110351;1240;71716;-67
2023/08/10 02:59:16;;;;;;;;;;;;;;;13.05;100.00;97526.14;110193;1243;68474;-69
2023/08/10 03:01:47;;;;;;;;;;;;;;;13.05;100.00;97528.24;110265;1240;68290;-69
2023/08/10 03:04:18;;;;;;;;;;;;;;;13.06;100.00;97535.44;110171;1245;59734;-67
2023/08/10 03:06:52;;;;;;;;;;;;;;;13.09;100.00;97540.83;110209;1241;59672;-68
2023/08/10 03:09:22;;;;;;;;;;;;;;;13.11;100.00;97540.86;110140;1244;71416;-69
2023/08/10 03:11:53;;;;;;;;;;;;;;;13.11;100.00;97541.91;110186;1241;68776;-69
2023/08/10 03:14:24;;;;;;;;;;;;;;;13.12;100.00;97543.92;110268;1242;69134;-70
2023/08/10 03:16:54;;;;;;;;;;;;;;;13.11;100.00;97544.81;110316;1243;59691;-70
2023/08/10 03:19:25;;;;;;;;;;;;;;;13.13;100.00;97546.59;110350;1242;59701;-70
2023/08/10 03:21:57;;;;;;;;;;;;;;;13.14;100.00;97545.13;110471;1241;70337;-69
2023/08/10 03:24:29;;;;;;;;;;;;;;;13.15;100.00;97547.34;110337;1242;68655;-69
2023/08/10 03:27:00;;;;;;;;;;;;;;;13.16;100.00;97548.30;110310;1240;68528;-69
2023/08/10 03:29:30;;;;;;;;;;;;;;;13.19;100.00;97553.16;110490;1241;59696;-70
2023/08/10 03:32:01;;;;;;;;;;;;;;;13.21;100.00;97556.97;110540;1241;59707;-70
2023/08/10 03:34:33;;;;;;;;;;;;;;;13.25;100.00;97561.03;110335;1240;71407;-70
2023/08/10 03:37:05;;;;;;;;;;;;;;;13.31;100.00;97566.23;110539;1241;69239;-71
2023/08/10 03:39:35;;;;;;;;;;;;;;;13.37;100.00;97568.21;110483;1241;69175;-70
2023/08/10 03:42:06;;;;;;;;;;;;;;;13.41;100.00;97570.12;110331;1242;59743;-69
2023/08/10 03:44:37;;;;;;;;;;;;;;;13.47;100.00;97573.84;110328;1240;59735;-70
2023/08/10 03:47:08;;;;;;;;;;;;;;;13.53;100.00;97575.77;110370;1241;70668;-70
2023/08/10 03:49:38;;;;;;;;;;;;;;;13.58;100.00;97576.05;110228;1241;67479;-71
2023/08/10 03:52:08;;;;;;;;;;;;;;;13.60;100.00;97577.11;110341;1242;69106;-68
2023/08/10 03:54:38;;;;;;;;;;;;;;;13.64;100.00;97580.31;110224;1241;59709;-69
2023/08/10 03:57:09;;;;;;;;;;;;;;;13.66;100.00;97579.78;110128;1244;59677;-70
2023/08/10 03:59:39;;;;;;;;;;;;;;;13.66;100.00;97574.86;110160;1244;71448;-69
2023/08/10 04:02:09;;;;;;;;;;;;;;;13.61;100.00;97575.64;110320;1242;68253;-72
2023/08/10 04:04:39;;;;;;;;;;;;;;;13.55;100.00;97573.30;110202;1244;68366;-68
2023/08/10 04:07:09;;;;;;;;;;;;;;;13.51;100.00;97577.64;110269;1242;59727;-68
2023/08/10 04:09:44;;;;;;;;;;;;;;;13.48;100.00;97576.56;110251;1241;59650;-68
2023/08/10 04:12:15;;;;;;;;;;;;;;;13.44;100.00;97574.77;110263;1242;69659;-68
2023/08/10 04:14:45;;;;;;;;;;;;;;;13.42;100.00;97573.56;110508;1239;69214;-69
2023/08/10 04:17:15;;;;;;;;;;;;;;;13.40;100.00;97574.23;110287;1242;69203;-71
2023/08/10 04:19:45;;;;;;;;;;;;;;;13.38;100.00;97574.36;110499;1242;59703;-71
2023/08/10 04:22:15;;;;;;;;;;;;;;;13.37;100.00;97576.75;110516;1242;59627;-70
2023/08/10 04:24:45;;;;;;;;;;;;;;;13.34;100.00;97577.00;110559;1241;71220;-70
2023/08/10 04:27:16;;;;;;;;;;;;;;;13.37;100.00;97577.23;110472;1241;68489;-70
2023/08/10 04:29:46;;;;;;;;;;;;;;;13.37;100.00;97582.55;110268;1241;69278;-68
2023/08/10 04:32:16;;;;;;;;;;;;;;;13.39;100.00;97583.75;110393;1240;59741;-70
2023/08/10 04:34:45;;;;;;;;;;;;;;;13.41;100.00;97583.81;110304;1241;59718;-70
2023/08/10 04:37:14;;;;;;;;;;;;;;;13.40;100.00;97584.73;110310;1242;71889;-70
2023/08/10 04:39:45;;;;;;;;;;;;;;;13.41;100.00;97581.33;110482;1242;69137;-70
2023/08/10 04:42:15;;;;;;;;;;;;;;;13.42;100.00;97584.05;110490;1241;67469;-70
2023/08/10 04:44:44;;;;;;;;;;;;;;;13.44;100.00;97586.65;110415;1241;59757;-69
2023/08/10 04:47:15;;;;;;;;;;;;;;;13.45;100.00;97588.99;110410;1240;59595;-69
2023/08/10 04:49:44;;;;;;;;;;;;;;;13.47;100.00;97595.33;110452;1241;70632;-70
2023/08/10 04:52:15;;;;;;;;;;;;;;;13.42;100.00;97598.94;110480;1241;68362;-70
2023/08/10 04:54:45;;;;;;;;;;;;;;;13.42;100.00;97598.74;110384;1240;69276;-70
2023/08/10 04:57:14;;;;;;;;;;;;;;;13.45;100.00;97599.66;110438;1241;59702;-68
2023/08/10 04:59:44;;;;;;;;;;;;;;;13.48;100.00;97602.25;110251;1241;59741;-70
2023/08/10 05:02:13;;;;;;;;;;;;;;;13.48;100.00;97609.77;110257;1241;71920;-69
2023/08/10 05:04:43;;;;;;;;;;;;;;;13.48;100.00;97615.04;110254;1242;69140;-69
2023/08/10 05:07:13;;;;;;;;;;;;;;;13.50;100.00;97615.07;110217;1241;69445;-69
2023/08/10 05:09:43;;;;;;;;;;;;;;;13.53;100.00;97611.64;110256;1242;59663;-69
2023/08/10 05:12:15;;;;;;;;;;;;;;;13.58;100.00;97610.36;110330;1242;59690;-70
2023/08/10 05:14:48;;;;;;;;;;;;;;;13.61;100.00;97608.89;110401;1239;71608;-68
2023/08/10 05:17:17;;;;;;;;;;;;;;;13.56;100.00;97611.75;110443;1241;69799;-69
2023/08/10 05:19:46;;;;;;;;;;;;;;;13.53;100.00;97617.63;110235;1240;68297;-68
2023/08/10 05:22:15;;;;;;;;;;;;;;;13.57;100.00;97626.05;110234;1241;60177;-68
2023/08/10 05:24:44;;;;;;;;;;;;;;;13.60;100.00;97635.83;110269;1240;60120;-69
2023/08/10 05:27:13;;;;;;;;;;;;;;;13.64;100.00;97638.27;110524;1241;71975;-70
2023/08/10 05:29:42;;;;;;;;;;;;;;;13.71;100.00;97639.96;110302;1240;68473;-70
2023/08/10 05:32:12;;;;;;;;;;;;;;;13.80;100.00;97640.29;110323;1241;68436;-69
2023/08/10 05:34:44;;;;;;;;;;;;;;;13.87;100.00;97647.73;110246;1242;59699;-68
2023/08/10 05:37:13;;;;;;;;;;;;;;;13.92;100.00;97645.37;110331;1241;59730;-69
2023/08/10 05:39:43;;;;;;;;;;;;;;;14.00;100.00;97647.70;110520;1242;71901;-68
2023/08/10 05:42:13;;;;;;;;;;;;;;;14.09;100.00;97646.52;110415;1241;69259;-69
2023/08/10 05:44:42;;;;;;;;;;;;;;;14.16;100.00;97644.63;110322;1241;69869;-68
2023/08/10 05:47:12;;;;;;;;;;;;;;;14.25;100.00;97642.33;110420;1241;59787;-69
2023/08/10 05:49:41;;;;;;;;;;;;;;;14.34;100.00;97638.39;110440;1241;59719;-69
2023/08/10 05:52:10;;;;;;;;;;;;;;;14.43;100.00;97639.55;110484;1241;70654;-69
2023/08/10 05:54:40;;;;;;;;;;;;;;;14.50;100.00;97642.15;110459;1241;69206;-69
2023/08/10 05:57:09;;;;;;;;;;;;;;;14.59;100.00;97639.81;110441;1241;70069;-69
2023/08/10 05:59:38;;;;;;;;;;;;;;;14.69;100.00;97640.15;110415;1239;59739;-71
2023/08/10 06:02:07;;;;;;;;;;;;;;;14.71;100.00;97639.12;110419;1240;59747;-69
2023/08/10 06:04:36;;;;;;;;;;;;;;;14.77;100.00;97642.15;110423;1241;70598;-70
2023/08/10 06:07:05;;;;;;;;;;;;;;;14.85;100.00;97644.40;110429;1240;68533;-69
2023/08/10 06:09:34;;;;;;;;;;;;;;;14.95;100.00;97644.98;110193;1239;68413;-70
2023/08/10 06:12:03;;;;;;;;;;;;;;;15.04;99.97;97644.14;110370;1241;59705;-71
2023/08/10 06:14:33;;;;;;;;;;;;;;;15.15;99.80;97651.79;110366;1241;59671;-71
2023/08/10 06:17:04;;;;;;;;;;;;;;;15.19;99.07;97656.50;110356;1240;71986;-70
2023/08/10 06:19:34;;;;;;;;;;;;;;;15.24;99.25;97656.10;110407;1240;70485;-69
2023/08/10 06:22:03;;;;;;;;;;;;;;;15.27;98.76;97655.11;110448;1241;69867;-69
2023/08/10 06:24:32;;;;;;;;;;;;;;;15.40;98.20;97656.10;110368;1241;59737;-70
2023/08/10 06:27:02;;;;;;;;;;;;;;;15.48;97.65;97657.31;110454;1241;59684;-70
2023/08/10 06:29:31;;;;;;;;;;;;;;;15.48;97.37;97658.92;110423;1241;71369;-70
2023/08/10 06:32:02;;;;;;;;;;;;;;;15.56;98.82;97655.42;110450;1242;69302;-70
2023/08/10 06:34:31;;;;;;;;;;;;;;;15.69;98.65;97649.48;110353;1240;69876;-70
2023/08/10 06:37:00;;;;;;;;;;;;;;;15.80;97.59;97649.06;110332;1241;59705;-69
2023/08/10 06:39:29;;;;;;;;;;;;;;;15.61;98.84;97651.96;110305;1241;59699;-69
2023/08/10 06:41:58;;;;;;;;;;;;;;;15.77;99.22;97649.09;110344;1241;71777;-70
2023/08/10 06:44:29;;;;;;;;;;;;;;;15.79;99.64;97655.58;110406;1241;69229;-69
2023/08/10 06:46:58;;;;;;;;;;;;;;;15.82;98.95;97652.36;110334;1242;69274;-69
2023/08/10 06:49:28;;;;;;;;;;;;;;;15.71;99.13;97656.19;110292;1241;59670;-69
2023/08/10 06:51:57;;;;;;;;;;;;;;;15.78;97.94;97660.80;110355;1241;59654;-68
2023/08/10 06:54:27;;;;;;;;;;;;;;;15.90;97.84;97658.55;110345;1241;71583;-69
2023/08/10 06:56:56;;;;;;;;;;;;;;;16.05;96.97;97659.91;110414;1242;69101;-69
2023/08/10 06:59:25;;;;;;;;;;;;;;;16.17;96.30;97657.59;110442;1241;69734;-70
2023/08/10 07:01:55;;;;;;;;;;;;;;;16.30;94.85;97656.77;110379;1243;59785;-69
2023/08/10 07:04:24;;;;;;;;;;;;;;;16.40;94.13;97652.20;110368;1241;59660;-68
2023/08/10 07:06:54;;;;;;;;;;;;;;;16.47;92.87;97654.10;110390;1241;70668;-69
2023/08/10 07:09:23;;;;;;;;;;;;;;;16.55;93.11;97660.08;110384;1241;69224;-70
2023/08/10 07:11:53;;;;;;;;;;;;;;;16.59;91.24;97657.30;110508;1242;69254;-70
2023/08/10 07:14:22;;;;;;;;;;;;;;;16.62;91.78;97659.95;110479;1241;59736;-69
2023/08/10 07:16:51;;;;;;;;;;;;;;;16.63;90.59;97659.31;110430;1241;59662;-69
2023/08/10 07:19:20;;;;;;;;;;;;;;;16.70;91.65;97659.41;110323;1242;70654;-69
2023/08/10 07:21:55;;;;;;;;;;;;;;;16.77;90.58;97659.44;110438;1239;69355;-69
2023/08/10 07:24:24;;;;;;;;;;;;;;;16.81;90.31;97660.17;110310;1240;69149;-71
2023/08/10 07:26:54;;;;;;;;;;;;;;;16.88;89.70;97658.62;110463;1241;59740;-70
2023/08/10 07:29:23;;;;;;;;;;;;;;;16.95;89.80;97657.92;110386;1240;59805;-69
2023/08/10 07:31:53;;;;;;;;;;;;;;;17.04;90.47;97660.98;110451;1241;71452;-70
2023/08/10 07:34:22;;;;;;;;;;;;;;;17.11;90.11;97664.34;110335;1241;69347;-70
2023/08/10 07:36:51;;;;;;;;;;;;;;;17.20;90.32;97664.14;110480;1240;69270;-71
2023/08/10 07:39:20;;;;;;;;;;;;;;;17.22;88.55;97669.24;110551;1241;59663;-69
2023/08/10 07:41:50;;;;;;;;;;;;;;;17.29;88.05;97670.49;110402;1241;59734;-69
2023/08/10 07:44:19;;;;;;;;;;;;;;;17.38;87.37;97672.45;110476;1241;72143;-69
2023/08/10 07:46:49;;;;;;;;;;;;;;;17.43;87.51;97676.10;110486;1241;69227;-70
2023/08/10 07:49:18;;;;;;;;;;;;;;;17.45;88.46;97674.44;110487;1241;68627;-70
2023/08/10 07:51:47;;;;;;;;;;;;;;;17.49;89.39;97678.48;110436;1241;59675;-71
2023/08/10 07:54:16;;;;;;;;;;;;;;;17.55;88.37;97677.48;110473;1241;59731;-69
2023/08/10 07:56:45;;;;;;;;;;;;;;;17.59;85.09;97680.36;110456;1241;71287;-69
2023/08/10 07:59:16;;;;;;;;;;;;;;;17.64;83.07;97684.42;110482;1241;69233;-71
2023/08/10 08:01:45;;;;;;;;;;;;;;;17.75;86.81;97678.95;110349;1241;68396;-69
2023/08/10 08:04:14;;;;;;;;;;;;;;;17.76;88.15;97680.75;110312;1241;59695;-70
2023/08/10 08:06:43;;;;;;;;;;;;;;;17.87;86.86;97681.48;110516;1241;59702;-69
2023/08/10 08:09:13;;;;;;;;;;;;;;;18.02;84.78;97677.55;110423;1242;71473;-70
2023/08/10 08:11:42;;;;;;;;;;;;;;;18.15;81.43;97683.33;110324;1240;68908;-69
2023/08/10 08:14:10;;;;;;;;;;;;;;;18.24;81.42;97680.07;110283;1241;68855;-69
2023/08/10 08:16:41;;;;;;;;;;;;;;;18.36;82.58;97685.41;110451;1239;59747;-68
2023/08/10 08:19:10;;;;;;;;;;;;;;;18.37;81.72;97682.65;110378;1242;59647;-69
2023/08/10 08:21:38;;;;;;;;;;;;;;;18.48;81.10;97684.36;110460;1242;71947;-69
2023/08/10 08:24:07;;;;;;;;;;;;;;;18.55;80.09;97682.95;110466;1241;69082;-69
2023/08/10 08:26:38;;;;;;;;;;;;;;;18.59;79.54;97684.12;110314;1241;68325;-69
2023/08/10 08:29:06;;;;;;;;;;;;;;;18.71;79.31;97678.59;110404;1241;59798;-68
2023/08/10 08:31:35;;;;;;;;;;;;;;;18.89;79.54;97678.64;110398;1241;59686;-69
2023/08/10 08:34:04;;;;;;;;;;;;;;;19.06;78.26;97675.72;110412;1241;71328;-69
2023/08/10 08:36:34;;;;;;;;;;;;;;;19.21;77.73;97675.67;110323;1240;68549;-68
2023/08/10 08:39:03;;;;;;;;;;;;;;;19.43;75.55;97673.11;110459;1241;67539;-70
2023/08/10 08:41:36;;;;;;;;;;;;;;;19.43;73.48;97670.63;110388;1241;60111;-69
2023/08/10 08:44:06;;;;;;;;;;;;;;;19.53;73.41;97671.00;110483;1240;59724;-69
2023/08/10 08:46:42;;;;;;;;;;;;;;;19.80;74.09;97670.99;110018;1241;566702;-70
2023/08/10 08:49:11;;;;;;;;;;;;;;;19.95;73.37;97675.02;110514;1242;67946;-71
2023/08/10 08:51:41;;;;;;;;;;;;;;;20.00;71.27;97675.40;110521;1242;69248;-70
2023/08/10 08:54:12;;;;;;;;;;;;;;;20.11;72.53;97670.92;110498;1241;59801;-69
2023/08/10 08:56:41;;;;;;;;;;;;;;;20.30;73.14;97658.11;110397;1241;59683;-70
2023/08/10 08:59:10;;;;;;;;;;;;;;;20.54;73.25;97656.13;110408;1242;71941;-68
2023/08/10 09:01:40;;;;;;;;;;;;;;;20.74;71.63;97656.20;110414;1242;69199;-69
2023/08/10 09:04:09;;;;;;;;;;;;;;;20.99;70.94;97660.61;110461;1241;69072;-69
2023/08/10 09:06:38;;;;;;;;;;;;;;;21.05;67.96;97656.84;110509;1241;60197;-68
2023/08/10 09:09:08;;;;;;;;;;;;;;;21.45;71.42;97658.65;110556;1241;59691;-70
2023/08/10 09:11:37;;;;;;;;;;;;;;;21.83;69.98;97656.73;110571;1240;71390;-70
2023/08/10 09:14:09;;;;;;;;;;;;;;;21.94;63.99;97660.48;110543;1241;69824;-70
2023/08/10 09:16:44;;;;;;;;;;;;;;;22.11;65.31;97662.27;110362;1242;69629;-70
2023/08/10 09:19:14;;;;;;;;;;;;;;;22.40;66.70;97662.83;110373;1241;59678;-70
2023/08/10 09:21:45;;;;;;;;;;;;;;;22.51;64.43;97657.77;110471;1241;59690;-70
2023/08/10 09:24:13;;;;;;;;;;;;;;;22.61;64.27;97658.39;110503;1241;71397;-70
2023/08/10 09:26:43;;;;;;;;;;;;;;;22.78;63.66;97657.80;110476;1239;69734;-70
2023/08/10 09:29:12;;;;;;;;;;;;;;;22.87;61.61;97656.26;110539;1240;69258;-70
2023/08/10 09:31:43;;;;;;;;;;;;;;;23.21;63.66;97657.55;110315;1240;60128;-70
2023/08/10 09:34:21;;;;;;;;;;;;;;;23.10;60.75;97652.90;110412;1241;59737;-68
2023/08/10 09:36:53;;;;;;;;;;;;;;;22.68;59.53;97650.84;110390;1241;71207;-69
2023/08/10 09:39:22;;;;;;;;;;;;;;;22.92;58.44;97649.02;110389;1242;68419;-69
2023/08/10 09:41:55;;;;;;;;;;;;;;;23.22;56.95;97650.05;110520;1241;68831;-70
2023/08/10 09:44:24;;;;;;;;;;;;;;;23.52;57.83;97647.10;110457;1242;59734;-69
2023/08/10 09:46:58;;;;;;;;;;;;;;;23.80;59.68;97648.23;110331;1241;59715;-69
2023/08/10 09:49:27;;;;;;;;;;;;;;;24.15;58.60;97644.83;110391;1242;72150;-71
2023/08/10 09:51:57;;;;;;;;;;;;;;;24.48;57.18;97639.38;110353;1241;69451;-70
2023/08/10 09:54:28;;;;;;;;;;;;;;;24.58;56.26;97636.23;110490;1241;68978;-69
2023/08/10 09:56:57;;;;;;;;;;;;;;;25.02;57.66;97633.48;110361;1241;59666;-69
2023/08/10 09:59:26;;;;;;;;;;;;;;;24.96;53.87;97627.73;110562;1241;59700;-69
2023/08/10 10:01:56;;;;;;;;;;;;;;;25.23;55.49;97628.39;110390;1241;71581;-69
2023/08/10 10:04:27;;;;;;;;;;;;;;;25.18;53.08;97630.11;110454;1241;69867;-68
2023/08/10 10:06:57;;;;;;;;;;;;;;;25.00;53.77;97630.42;110410;1241;69881;-68
2023/08/10 10:09:31;;;;;;;;;;;;;;;25.33;54.97;97630.84;110370;1241;59727;-69
2023/08/10 10:12:00;;;;;;;;;;;;;;;25.28;52.84;97622.52;110475;1241;59664;-70
2023/08/10 10:14:32;;;;;;;;;;;;;;;24.88;53.81;97623.44;110495;1242;69918;-67
2023/08/10 10:17:02;;;;;;;;;;;;;;;25.31;53.88;97619.69;110464;1241;69059;-69
2023/08/10 10:19:31;;;;;;;;;;;;;;;25.50;53.31;97618.31;110426;1241;69857;-68
2023/08/10 10:22:01;;;;;;;;;;;;;;;25.93;54.01;97618.31;110457;1241;59666;-69
2023/08/10 10:24:33;;;;;;;;;;;;;;;26.25;52.88;97613.56;110449;1241;59626;-68
2023/08/10 10:27:08;;;;;;;;;;;;;;;26.55;51.91;97609.11;110491;1248;71184;-70
2023/08/10 10:29:40;;;;;;;;;;;;;;;26.93;51.41;97607.73;110413;1241;69277;-69
2023/08/10 10:32:12;;;;;;;;;;;;;;;27.12;49.18;97608.69;110358;1241;69069;-68
2023/08/10 10:34:41;;;;;;;;;;;;;;;27.43;50.49;97606.45;110350;1241;59721;-70
2023/08/10 10:37:30;;;;;;;;;;;;;;;27.83;48.80;97608.88;110506;1241;59710;-68
2023/08/10 10:40:16;;;;;;;;;;;;;;;28.42;47.13;97603.27;110366;1240;70636;-69
2023/08/10 10:43:04;;;;;;;;;;;;;;;28.88;43.45;97602.85;110460;1241;69420;-70
2023/08/10 10:45:37;;;;;;;;;;;;;;;29.44;45.82;97603.58;110429;1242;68514;-69
2023/08/10 10:48:09;;;;;;;;;;;;;;;29.78;43.84;97603.96;110288;1241;59696;-68
2023/08/10 10:50:38;;;;;;;;;;;;;;;28.71;38.48;97596.92;110423;1239;59657;-69
2023/08/10 10:53:13;;;;;;;;;;;;;;;29.02;42.41;97597.63;110246;1242;71388;-69
2023/08/10 10:55:43;;;;;;;;;;;;;;;29.02;40.67;97593.91;110293;1241;69215;-68
2023/08/10 10:58:13;;;;;;;;;;;;;;;29.36;42.01;97594.41;110342;1241;68556;-69
2023/08/10 11:00:43;;;;;;;;;;;;;;;28.94;39.59;97592.54;110338;1241;59696;-69
2023/08/10 11:03:19;;;;;;;;;;;;;;;28.92;41.23;97589.54;110336;1241;59676;-68
2023/08/10 11:05:48;;;;;;;;;;;;;;;29.23;40.29;97588.39;110329;1241;71201;-69
2023/08/10 11:08:18;;;;;;;;;;;;;;;29.38;40.30;97588.50;110314;1242;69304;-68
2023/08/10 11:10:50;;;;;;;;;;;;;;;29.53;39.37;97582.02;110337;1241;69283;-69
2023/08/10 11:13:24;;;;;;;;;;;;;;;29.78;40.35;97580.55;110381;1241;59744;-69
2023/08/10 11:15:53;;;;;;;;;;;;;;;29.81;40.39;97576.02;110333;1241;59630;-70
2023/08/10 11:18:22;;;;;;;;;;;;;;;30.24;39.49;97576.00;110347;1241;71238;-69
2023/08/10 11:20:51;;;;;;;;;;;;;;;30.36;38.25;97571.27;110400;1239;69116;-67
2023/08/10 11:23:20;;;;;;;;;;;;;;;30.38;37.41;97567.79;110380;1241;69163;-67
2023/08/10 11:25:50;;;;;;;;;;;;;;;31.01;36.93;97567.27;110321;1239;59728;-68
2023/08/10 11:28:20;;;;;;;;;;;;;;;30.94;35.19;97564.25;110396;1242;59620;-69
2023/08/10 11:30:49;;;;;;;;;;;;;;;31.40;36.70;97564.65;110495;1240;71954;-68
2023/08/10 11:33:19;;;;;;;;;;;;;;;31.80;36.21;97568.29;110363;1240;69147;-69
2023/08/10 11:35:50;;;;;;;;;;;;;;;31.87;35.60;97571.05;110433;1241;69917;-68
2023/08/10 11:38:19;;;;;;;;;;;;;;;30.97;34.30;97562.45;110366;1241;59695;-69
2023/08/10 11:40:48;;;;;;;;;;;;;;;31.48;35.46;97559.85;110386;1241;59737;-68
2023/08/10 11:43:20;;;;;;;;;;;;;;;31.75;35.36;97559.98;110474;1239;71227;-67
2023/08/10 11:45:49;;;;;;;;;;;;;;;31.22;33.94;97553.77;110469;1240;69813;-68
2023/08/10 11:48:19;;;;;;;;;;;;;;;31.52;35.09;97551.77;110402;1241;69106;-69
2023/08/10 11:50:58;;;;;;;;;;;;;;;31.52;32.71;97547.81;110396;1242;59730;-69
2023/08/10 11:53:36;;;;;;;;;;;;;;;31.72;33.21;97546.70;110363;1241;59686;-68
2023/08/10 11:56:09;;;;;;;;;;;;;;;31.68;32.95;97549.64;110343;1240;71714;-68
2023/08/10 11:58:39;;;;;;;;;;;;;;;31.82;31.44;97548.54;110328;1241;68441;-68
2023/08/10 12:01:11;;;;;;;;;;;;;;;31.33;32.04;97549.90;110358;1240;68532;-67
2023/08/10 12:03:47;;;;;;;;;;;;;;;31.71;32.57;97549.92;110372;1241;59712;-68
2023/08/10 12:06:17;;;;;;;;;;;;;;;31.58;31.38;97551.00;110420;1241;59734;-68
2023/08/10 12:08:46;;;;;;;;;;;;;;;31.37;32.09;97551.64;110318;1244;72502;-69
2023/08/10 12:11:19;;;;;;;;;;;;;;;31.58;32.13;97555.56;110322;1241;70147;-68
2023/08/10 12:13:49;;;;;;;;;;;;;;;31.60;32.22;97553.37;110398;1241;69311;-68
2023/08/10 12:16:19;;;;;;;;;;;;;;;31.71;31.94;97553.52;110379;1240;60156;-70
2023/08/10 12:18:50;;;;;;;;;;;;;;;31.76;31.62;97553.09;110376;1241;59641;-70
2023/08/10 12:21:22;;;;;;;;;;;;;;;31.46;32.79;97556.58;110257;1241;71839;-69
2023/08/10 12:23:50;;;;;;;;;;;;;;;31.88;32.13;97554.70;110438;1241;69005;-70
2023/08/10 12:26:19;;;;;;;;;;;;;;;32.01;31.52;97547.45;110362;1241;69341;-69
2023/08/10 12:28:48;;;;;;;;;;;;;;;31.93;31.34;97551.45;110402;1239;61175;-69
2023/08/10 12:31:19;;;;;;;;;;;;;;;31.84;31.74;97551.65;110529;1244;59682;-69
2023/08/10 12:33:50;;;;;;;;;;;;;;;31.65;31.87;97551.09;110432;1241;71953;-69
2023/08/10 12:36:20;;;;;;;;;;;;;;;31.32;32.18;97547.34;110432;1242;69100;-69
2023/08/10 12:38:50;;;;;;;;;;;;;;;31.14;33.16;97547.82;110500;1242;68731;-70
2023/08/10 12:41:19;;;;;;;;;;;;;;;30.87;32.56;97544.95;110479;1241;59780;-70
2023/08/10 12:43:48;;;;;;;;;;;;;;;30.64;33.46;97542.98;110379;1241;59696;-70
2023/08/10 12:46:19;;;;;;;;;;;;;;;30.41;33.73;97540.91;110370;1241;71988;-68
2023/08/10 12:48:48;;;;;;;;;;;;;;;30.44;33.92;97539.95;110347;1242;69640;-68
2023/08/10 12:51:18;;;;;;;;;;;;;;;30.39;33.12;97540.77;110343;1241;69903;-69